createdAt,value
2018-06-21T00:00:37.802Z,14.17
2018-06-21T00:03:22.622Z,13.30
2018-06-21T00:05:50.166Z,16.00
2018-06-21T00:08:17.814Z,20.73
2018-06-21T00:10:45.954Z,17.73
2018-06-21T00:13:13.465Z,20.63
2018-06-21T00:15:52.336Z,12.37
2018-06-21T00:18:37.242Z,16.87
2018-06-21T00:21:04.864Z,25.23
2018-06-21T00:23:32.684Z,16.43
2018-06-21T00:26:00.243Z,19.93
2018-06-21T00:28:27.788Z,19.47
2018-06-21T00:30:55.388Z,15.47
2018-06-21T00:33:22.989Z,17.47
2018-06-21T00:35:50.586Z,21.13
2018-06-21T00:38:18.265Z,17.50
2018-06-21T00:40:45.785Z,21.00
2018-06-21T00:43:13.369Z,16.83
2018-06-21T00:45:41.031Z,19.33
2018-06-21T00:48:08.585Z,19.93
2018-06-21T00:50:36.105Z,19.20
2018-06-21T00:53:03.747Z,16.03
2018-06-21T00:55:42.725Z,15.63
2018-06-21T00:58:10.302Z,17.83
2018-06-21T01:00:39.407Z,23.97
2018-06-21T01:03:06.973Z,16.57
2018-06-21T01:05:34.583Z,20.53
2018-06-21T01:08:02.150Z,19.03
2018-06-21T01:10:29.733Z,18.77
2018-06-21T01:12:57.283Z,21.93
2018-06-21T01:15:24.854Z,17.80
2018-06-21T01:17:52.468Z,16.03
2018-06-21T01:20:20.095Z,14.70
2018-06-21T01:22:47.637Z,20.17
2018-06-21T01:25:16.355Z,16.87
2018-06-21T01:27:43.856Z,24.43
2018-06-21T01:30:11.398Z,16.30
2018-06-21T01:32:39.057Z,18.03
2018-06-21T01:35:06.689Z,24.23
2018-06-21T01:37:34.307Z,20.87
2018-06-21T01:40:01.873Z,21.83
2018-06-21T01:42:29.369Z,24.53
2018-06-21T01:44:56.961Z,25.30
2018-06-21T01:47:24.488Z,22.57
2018-06-21T01:49:52.034Z,22.80
2018-06-21T01:52:19.666Z,20.60
2018-06-21T01:54:47.178Z,21.80
2018-06-21T01:57:14.752Z,23.00
2018-06-21T01:59:42.322Z,28.17
2018-06-21T02:02:09.882Z,21.83
2018-06-21T02:04:37.514Z,21.73
2018-06-21T02:07:05.057Z,28.47
2018-06-21T02:09:32.594Z,20.70
2018-06-21T02:12:00.161Z,25.60
2018-06-21T02:14:27.700Z,17.07
2018-06-21T02:16:55.774Z,24.20
2018-06-21T02:19:23.347Z,17.73
2018-06-21T02:21:50.913Z,20.80
2018-06-21T02:24:18.441Z,15.00
2018-06-21T02:26:45.895Z,19.13
2018-06-21T02:29:14.234Z,17.10
2018-06-21T02:31:41.823Z,12.50
2018-06-21T02:34:09.366Z,17.10
2018-06-21T02:36:36.937Z,21.10
2018-06-21T02:39:06.161Z,14.53
2018-06-21T02:41:33.709Z,18.03
2018-06-21T02:44:01.284Z,13.03
2018-06-21T02:46:29.398Z,11.07
2018-06-21T02:48:57.581Z,10.87
2018-06-21T02:51:25.103Z,9.10
2018-06-21T02:53:52.698Z,10.83
2018-06-21T02:56:20.261Z,10.33
2018-06-21T02:58:47.816Z,14.53
2018-06-21T03:01:15.311Z,9.47
2018-06-21T03:03:43.003Z,9.20
2018-06-21T03:06:10.511Z,9.77
2018-06-21T03:08:38.070Z,9.27
2018-06-21T03:11:05.630Z,10.73
2018-06-21T03:13:33.325Z,10.13
2018-06-21T03:16:00.959Z,11.53
2018-06-21T03:18:28.627Z,9.23
2018-06-21T03:20:56.134Z,12.70
2018-06-21T03:23:23.685Z,9.00
2018-06-21T03:25:51.305Z,10.37
2018-06-21T03:28:18.820Z,7.07
2018-06-21T03:30:46.390Z,10.23
2018-06-21T03:33:13.958Z,12.80
2018-06-21T03:35:41.574Z,11.37
2018-06-21T03:38:09.244Z,13.27
2018-06-21T03:40:36.744Z,8.33
2018-06-21T03:43:04.340Z,10.27
2018-06-21T03:45:31.894Z,11.13
2018-06-21T03:47:59.466Z,9.17
2018-06-21T03:50:27.066Z,8.93
2018-06-21T03:52:54.671Z,4.80
2018-06-21T03:55:22.235Z,9.70
2018-06-21T03:57:49.764Z,12.13
2018-06-21T04:00:17.262Z,14.13
2018-06-21T04:02:44.882Z,11.20
2018-06-21T04:05:12.488Z,8.67
2018-06-21T04:07:40.099Z,15.17
2018-06-21T04:10:07.666Z,9.17
2018-06-21T04:12:35.465Z,10.07
2018-06-21T04:15:03.150Z,8.77
2018-06-21T04:17:30.861Z,12.87
2018-06-21T04:19:58.409Z,9.70
2018-06-21T04:22:25.924Z,11.00
2018-06-21T04:24:53.469Z,8.47
2018-06-21T04:27:21.120Z,8.57
2018-06-21T04:29:48.706Z,10.47
2018-06-21T04:32:16.303Z,8.67
2018-06-21T04:34:43.752Z,10.37
2018-06-21T04:37:11.273Z,7.53
2018-06-21T04:39:39.330Z,12.63
2018-06-21T04:42:06.849Z,9.77
2018-06-21T04:44:34.411Z,8.77
2018-06-21T04:47:02.010Z,10.70
2018-06-21T04:49:29.575Z,15.27
2018-06-21T04:51:57.193Z,13.00
2018-06-21T04:54:24.830Z,11.97
2018-06-21T04:56:52.360Z,11.80
2018-06-21T04:59:19.925Z,17.63
2018-06-21T05:01:47.402Z,21.00
2018-06-21T05:04:14.954Z,12.37
2018-06-21T05:06:42.617Z,14.13
2018-06-21T05:09:11.758Z,8.47
2018-06-21T05:11:39.279Z,11.63
2018-06-21T05:14:07.326Z,8.73
2018-06-21T05:16:34.877Z,12.50
2018-06-21T05:19:02.503Z,7.57
2018-06-21T05:21:30.108Z,10.17
2018-06-21T05:23:57.954Z,7.57
2018-06-21T05:26:25.569Z,10.37
2018-06-21T05:28:53.125Z,7.80
2018-06-21T05:31:20.704Z,6.40
2018-06-21T05:33:48.432Z,7.43
2018-06-21T05:36:15.934Z,6.33
2018-06-21T05:38:43.465Z,6.80
2018-06-21T05:41:10.977Z,9.33
2018-06-21T05:43:39.273Z,5.87
2018-06-21T05:46:06.751Z,7.13
2018-06-21T05:48:34.236Z,7.50
2018-06-21T05:51:01.785Z,8.73
2018-06-21T05:53:29.282Z,8.77
2018-06-21T05:55:56.802Z,7.83
2018-06-21T05:58:24.351Z,6.73
2018-06-21T06:00:52.476Z,5.57
2018-06-21T06:03:20.025Z,7.33
2018-06-21T06:05:47.585Z,6.93
2018-06-21T06:08:15.268Z,6.23
2018-06-21T06:10:42.880Z,12.53
2018-06-21T06:13:10.381Z,10.93
2018-06-21T06:15:37.889Z,8.33
2018-06-21T06:18:05.424Z,9.67
2018-06-21T06:20:33.485Z,12.17
2018-06-21T06:23:01.119Z,6.83
2018-06-21T06:25:28.678Z,16.40
2018-06-21T06:27:56.176Z,10.57
2018-06-21T06:30:23.756Z,13.07
2018-06-21T06:32:51.279Z,13.87
2018-06-21T06:35:18.817Z,10.83
2018-06-21T06:37:47.062Z,15.47
2018-06-21T06:40:15.264Z,15.03
2018-06-21T06:42:43.581Z,12.50
2018-06-21T06:45:11.135Z,12.77
2018-06-21T06:47:38.759Z,12.33
2018-06-21T06:50:06.276Z,13.53
2018-06-21T06:52:34.007Z,8.80
2018-06-21T06:55:01.618Z,12.40
2018-06-21T06:57:29.082Z,11.97
2018-06-21T06:59:56.575Z,16.30
2018-06-21T07:02:24.371Z,7.27
2018-06-21T07:04:51.938Z,9.17
2018-06-21T07:07:19.512Z,16.30
2018-06-21T07:09:47.124Z,10.17
2018-06-21T07:12:14.663Z,16.43
2018-06-21T07:14:42.174Z,14.37
2018-06-21T07:17:09.795Z,10.33
2018-06-21T07:19:37.329Z,8.57
2018-06-21T07:22:04.942Z,11.77
2018-06-21T07:24:32.513Z,9.03
2018-06-21T07:27:00.216Z,10.83
2018-06-21T07:29:27.918Z,8.30
2018-06-21T07:31:55.609Z,11.00
2018-06-21T07:34:23.262Z,10.97
2018-06-21T07:36:50.788Z,12.53
2018-06-21T07:39:18.351Z,11.67
2018-06-21T07:41:45.968Z,8.47
2018-06-21T07:44:13.473Z,9.80
2018-06-21T07:46:41.053Z,10.23
2018-06-21T07:49:08.513Z,10.20
2018-06-21T07:51:36.053Z,6.50
2018-06-21T07:54:03.593Z,9.53
2018-06-21T07:56:31.101Z,10.60
2018-06-21T07:58:58.711Z,14.30
2018-06-21T08:01:26.250Z,11.37
2018-06-21T08:03:53.810Z,11.37
2018-06-21T08:06:21.387Z,9.17
2018-06-21T08:08:49.046Z,13.33
2018-06-21T08:11:16.670Z,11.00
2018-06-21T08:13:44.378Z,14.80
2018-06-21T08:16:11.901Z,15.40
2018-06-21T08:18:39.358Z,15.63
2018-06-21T08:21:07.031Z,11.10
2018-06-21T08:23:34.557Z,7.63
2018-06-21T08:26:02.164Z,8.60
2018-06-21T08:28:29.699Z,15.43
2018-06-21T08:30:57.358Z,11.13
2018-06-21T08:33:25.029Z,11.13
2018-06-21T08:35:52.660Z,6.07
2018-06-21T08:38:20.179Z,13.23
2018-06-21T08:40:47.729Z,11.90
2018-06-21T08:43:15.267Z,9.73
2018-06-21T08:45:42.819Z,10.57
2018-06-21T08:48:10.346Z,9.63
2018-06-21T08:50:37.923Z,9.37
2018-06-21T08:53:05.441Z,9.90
2018-06-21T08:55:33.046Z,10.50
2018-06-21T08:58:00.646Z,12.23
2018-06-21T09:00:28.082Z,14.33
2018-06-21T09:02:55.759Z,9.07
2018-06-21T09:05:23.290Z,11.20
2018-06-21T09:07:51.246Z,9.47
2018-06-21T09:10:18.925Z,8.67
2018-06-21T09:12:46.464Z,8.60
2018-06-21T09:15:14.683Z,13.37
2018-06-21T09:17:42.243Z,12.37
2018-06-21T09:20:09.803Z,14.07
2018-06-21T09:22:38.091Z,8.17
2018-06-21T09:25:05.668Z,9.17
2018-06-21T09:27:33.269Z,9.80
2018-06-21T09:30:00.888Z,8.67
2018-06-21T09:32:29.754Z,7.90
2018-06-21T09:34:57.308Z,10.00
2018-06-21T09:37:30.388Z,9.70
2018-06-21T09:40:03.593Z,10.07
2018-06-21T09:42:37.374Z,8.03
2018-06-21T09:45:04.968Z,8.20
2018-06-21T09:47:38.158Z,12.67
2018-06-21T09:50:05.817Z,6.80
2018-06-21T09:52:33.408Z,8.43
2018-06-21T09:55:01.039Z,9.17
2018-06-21T09:57:28.626Z,18.20
2018-06-21T09:59:56.181Z,8.63
2018-06-21T10:02:23.712Z,4.83
2018-06-21T10:04:51.255Z,9.97
2018-06-21T10:07:18.759Z,13.37
2018-06-21T10:09:46.273Z,12.03
2018-06-21T10:12:13.816Z,7.77
2018-06-21T10:14:41.372Z,6.33
2018-06-21T10:17:09.692Z,6.63
2018-06-21T10:19:38.268Z,6.53
2018-06-21T10:22:06.204Z,7.70
2018-06-21T10:24:33.718Z,8.60
2018-06-21T10:27:01.361Z,9.13
2018-06-21T10:29:28.842Z,8.33
2018-06-21T10:31:56.392Z,8.07
2018-06-21T10:34:23.929Z,9.00
2018-06-21T10:36:51.544Z,8.20
2018-06-21T10:39:25.917Z,7.33
2018-06-21T10:41:53.481Z,4.10
2018-06-21T10:44:21.053Z,7.27
2018-06-21T10:46:48.614Z,9.50
2018-06-21T10:49:16.876Z,9.83
2018-06-21T10:51:44.455Z,8.53
2018-06-21T10:54:12.019Z,7.27
2018-06-21T10:56:39.645Z,5.93
2018-06-21T10:59:07.235Z,8.70
2018-06-21T11:01:34.873Z,11.57
2018-06-21T11:04:02.361Z,9.50
2018-06-21T11:06:29.888Z,9.47
2018-06-21T11:08:57.585Z,9.47
2018-06-21T11:11:25.129Z,11.13
2018-06-21T11:13:52.661Z,7.87
2018-06-21T11:16:20.182Z,12.10
2018-06-21T11:18:47.853Z,9.33
2018-06-21T11:21:15.558Z,7.67
2018-06-21T11:23:43.176Z,7.97
2018-06-21T11:26:10.794Z,14.77
2018-06-21T11:28:38.368Z,9.10
2018-06-21T11:31:05.889Z,9.57
2018-06-21T11:33:33.501Z,10.00
2018-06-21T11:36:01.565Z,11.27
2018-06-21T11:38:29.094Z,9.93
2018-06-21T11:40:56.706Z,8.63
2018-06-21T11:43:24.243Z,9.97
2018-06-21T11:45:51.759Z,8.33
2018-06-21T11:48:19.219Z,7.50
2018-06-21T11:50:46.749Z,10.40
2018-06-21T11:53:14.236Z,8.50
2018-06-21T11:55:41.789Z,13.63
2018-06-21T11:58:09.410Z,12.83
2018-06-21T12:00:36.996Z,8.67
2018-06-21T12:03:04.804Z,7.10
2018-06-21T12:05:32.285Z,8.40
2018-06-21T12:07:59.849Z,11.43
2018-06-21T12:10:27.424Z,6.10
2018-06-21T12:12:55.014Z,6.90
2018-06-21T12:15:22.624Z,7.37
2018-06-21T12:17:50.132Z,4.83
2018-06-21T12:20:17.677Z,7.67
2018-06-21T12:22:45.369Z,6.83
2018-06-21T12:25:13.004Z,5.07
2018-06-21T12:27:40.502Z,11.77
2018-06-21T12:30:08.064Z,18.07
2018-06-21T12:32:35.780Z,8.00
2018-06-21T12:35:03.389Z,7.90
2018-06-21T12:37:31.056Z,12.17
2018-06-21T12:39:58.728Z,7.80
2018-06-21T12:42:26.249Z,9.93
2018-06-21T12:44:53.816Z,9.20
2018-06-21T12:47:21.350Z,9.10
2018-06-21T12:49:48.853Z,9.80
2018-06-21T12:52:16.344Z,8.73
2018-06-21T12:54:43.884Z,10.57
2018-06-21T12:57:11.392Z,10.97
2018-06-21T12:59:38.979Z,8.93
2018-06-21T13:02:06.561Z,12.17
2018-06-21T13:04:34.200Z,14.97
2018-06-21T13:07:01.833Z,10.93
2018-06-21T13:09:40.717Z,10.60
2018-06-21T13:12:31.481Z,7.63
2018-06-21T13:14:59.125Z,7.70
2018-06-21T13:17:28.009Z,8.60
2018-06-21T13:19:55.692Z,12.70
2018-06-21T13:22:23.436Z,6.83
2018-06-21T13:24:52.189Z,5.97
2018-06-21T13:27:19.758Z,7.62
2018-06-21T13:29:47.370Z,7.03
2018-06-21T13:32:14.932Z,7.27
2018-06-21T13:34:42.429Z,6.37
2018-06-21T13:37:10.017Z,13.00
2018-06-21T13:39:37.533Z,9.67
2018-06-21T13:42:05.178Z,9.90
2018-06-21T13:44:32.757Z,9.50
2018-06-21T13:47:00.893Z,7.70
2018-06-21T13:49:28.436Z,7.67
2018-06-21T13:51:56.200Z,9.23
2018-06-21T13:54:23.937Z,8.50
2018-06-21T13:56:51.477Z,10.13
2018-06-21T13:59:19.418Z,9.13
2018-06-21T14:01:47.317Z,9.03
2018-06-21T14:04:15.609Z,11.73
2018-06-21T14:06:43.110Z,11.10
2018-06-21T14:09:11.700Z,11.20
2018-06-21T14:11:39.456Z,12.10
2018-06-21T14:14:06.965Z,11.13
2018-06-21T14:16:34.943Z,10.67
2018-06-21T14:19:02.488Z,16.40
2018-06-21T14:21:30.039Z,13.50
2018-06-21T14:23:57.571Z,13.57
2018-06-21T14:26:26.103Z,14.10
2018-06-21T14:28:54.010Z,13.73
2018-06-21T14:31:22.505Z,7.70
2018-06-21T14:33:50.048Z,13.07
2018-06-21T14:36:17.674Z,13.37
2018-06-21T14:38:45.230Z,13.67
2018-06-21T14:41:12.770Z,12.30
2018-06-21T14:43:40.634Z,7.70
2018-06-21T14:46:08.905Z,11.97
2018-06-21T14:48:37.061Z,8.13
2018-06-21T14:51:04.579Z,11.57
2018-06-21T14:53:32.162Z,13.63
2018-06-21T14:55:59.714Z,9.93
2018-06-21T14:58:27.203Z,10.53
2018-06-21T15:00:54.689Z,11.87
2018-06-21T15:03:22.187Z,15.43
2018-06-21T15:05:49.756Z,11.33
2018-06-21T15:08:17.295Z,8.53
2018-06-21T15:10:44.831Z,5.43
2018-06-21T15:13:12.692Z,8.33
2018-06-21T15:15:40.196Z,7.70
2018-06-21T15:18:07.701Z,10.53
2018-06-21T15:20:35.261Z,7.30
2018-06-21T15:23:02.868Z,8.47
2018-06-21T15:25:30.414Z,12.10
2018-06-21T15:27:57.965Z,8.47
2018-06-21T15:30:25.500Z,6.50
2018-06-21T15:32:53.068Z,10.40
2018-06-21T15:35:20.690Z,11.67
2018-06-21T15:37:48.428Z,7.40
2018-06-21T15:40:15.982Z,8.90
2018-06-21T15:42:43.514Z,8.97
2018-06-21T15:45:11.019Z,10.87
2018-06-21T15:47:38.629Z,10.93
2018-06-21T15:50:06.202Z,9.37
2018-06-21T15:52:33.787Z,11.07
2018-06-21T15:55:01.405Z,13.00
2018-06-21T15:57:29.086Z,8.17
2018-06-21T15:59:56.585Z,10.70
2018-06-21T16:02:24.153Z,7.67
2018-06-21T16:04:51.650Z,5.97
2018-06-21T16:07:19.259Z,13.60
2018-06-21T16:09:46.819Z,10.83
2018-06-21T16:12:14.386Z,5.30
2018-06-21T16:14:41.916Z,9.27
2018-06-21T16:17:09.476Z,9.17
2018-06-21T16:19:37.044Z,11.20
2018-06-21T16:22:04.580Z,10.07
2018-06-21T16:24:32.258Z,9.33
2018-06-21T16:26:59.834Z,7.90
2018-06-21T16:29:27.394Z,12.90
2018-06-21T16:31:55.112Z,10.80
2018-06-21T16:34:22.883Z,9.97
2018-06-21T16:36:50.559Z,15.10
2018-06-21T16:39:18.126Z,6.43
2018-06-21T16:41:45.698Z,10.73
2018-06-21T16:44:13.289Z,11.43
2018-06-21T16:46:40.884Z,10.67
2018-06-21T16:49:12.743Z,12.40
2018-06-21T16:51:40.301Z,10.20
2018-06-21T16:54:07.899Z,10.90
2018-06-21T16:56:35.444Z,9.07
2018-06-21T16:59:02.983Z,10.93
2018-06-21T17:01:30.867Z,11.83
2018-06-21T17:03:58.894Z,8.60
2018-06-21T17:06:26.626Z,11.10
2018-06-21T17:08:56.406Z,13.23
2018-06-21T17:11:24.116Z,13.63
2018-06-21T17:13:51.744Z,9.60
2018-06-21T17:21:45.180Z,6.08
2018-06-21T17:24:12.906Z,10.67
2018-06-21T17:26:40.533Z,14.67
2018-06-21T17:29:08.165Z,11.47
2018-06-21T17:31:35.896Z,8.17
2018-06-21T17:34:03.434Z,12.27
2018-06-21T17:36:31.042Z,11.73
2018-06-21T17:38:59.203Z,13.40
2018-06-21T17:41:26.681Z,14.00
2018-06-21T17:43:54.185Z,9.77
2018-06-21T17:46:21.926Z,13.03
2018-06-21T17:48:49.465Z,9.93
2018-06-21T17:51:16.971Z,9.30
2018-06-21T17:53:44.608Z,10.47
2018-06-21T17:56:12.137Z,10.37
2018-06-21T17:58:39.677Z,11.70
2018-06-21T18:01:07.421Z,9.90
2018-06-21T18:03:34.976Z,10.90
2018-06-21T18:06:02.469Z,7.63
2018-06-21T18:08:29.974Z,6.70
2018-06-21T18:10:57.585Z,10.63
2018-06-21T18:13:25.159Z,8.93
2018-06-21T18:15:52.668Z,10.67
2018-06-21T18:18:20.266Z,16.27
2018-06-21T18:20:47.800Z,8.10
2018-06-21T18:23:15.281Z,9.10
2018-06-21T18:25:42.891Z,13.57
2018-06-21T18:28:10.401Z,8.97
2018-06-21T18:30:38.073Z,8.17
2018-06-21T18:33:05.613Z,7.53
2018-06-21T18:35:33.250Z,8.40
2018-06-21T18:38:03.522Z,15.90
2018-06-21T18:40:31.218Z,10.00
2018-06-21T18:42:58.799Z,8.90
2018-06-21T18:45:26.429Z,9.70
2018-06-21T18:47:54.003Z,11.43
2018-06-21T18:50:21.519Z,9.97
2018-06-21T18:52:49.157Z,11.90
2018-06-21T18:55:17.159Z,9.30
2018-06-21T18:57:44.680Z,13.40
2018-06-21T19:00:12.985Z,9.80
2018-06-21T19:02:47.272Z,17.80
2018-06-21T19:05:14.856Z,11.03
2018-06-21T19:07:42.620Z,6.93
2018-06-21T19:10:15.676Z,6.00
2018-06-21T19:12:43.173Z,5.00
2018-06-21T19:15:10.758Z,9.80
2018-06-21T19:17:38.355Z,8.33
2018-06-21T19:20:05.945Z,11.33
2018-06-21T19:22:33.497Z,9.57
2018-06-21T19:25:01.051Z,9.23
2018-06-21T19:27:28.601Z,6.97
2018-06-21T19:29:56.126Z,10.17
2018-06-21T19:32:23.741Z,9.27
2018-06-21T19:37:25.616Z,13.37
2018-06-21T19:39:53.261Z,9.50
2018-06-21T19:42:20.918Z,10.00
2018-06-21T19:44:48.467Z,11.10
2018-06-21T19:47:16.068Z,8.17
2018-06-21T19:49:43.607Z,9.87
2018-06-21T19:52:11.238Z,6.77
2018-06-21T19:54:38.862Z,8.30
2018-06-21T19:57:06.478Z,17.73
2018-06-21T19:59:34.766Z,12.07
2018-06-21T20:02:02.308Z,12.17
2018-06-21T20:04:30.463Z,6.43
2018-06-21T20:06:57.952Z,9.00
2018-06-21T20:09:25.447Z,7.37
2018-06-21T20:11:52.946Z,17.73
2018-06-21T20:14:20.451Z,6.17
2018-06-21T20:16:47.935Z,17.07
2018-06-21T20:19:17.591Z,10.67
2018-06-21T20:21:45.184Z,9.53
2018-06-21T20:24:12.697Z,6.87
2018-06-21T20:26:40.822Z,7.33
2018-06-21T20:29:14.032Z,8.97
2018-06-21T20:31:41.638Z,5.03
2018-06-21T20:34:09.159Z,6.13
2018-06-21T20:36:37.029Z,9.37
2018-06-21T20:39:06.986Z,8.70
2018-06-21T20:41:34.623Z,9.03
2018-06-21T20:44:02.342Z,5.93
2018-06-21T20:46:29.828Z,10.47
2018-06-21T20:48:57.372Z,10.70
2018-06-21T20:51:25.006Z,5.13
2018-06-21T20:53:52.481Z,7.87
2018-06-21T20:56:20.074Z,3.50
2018-06-21T20:58:47.647Z,6.40
2018-06-21T21:01:15.363Z,7.87
2018-06-21T21:03:42.980Z,4.83
2018-06-21T21:06:10.562Z,8.00
2018-06-21T21:08:38.095Z,10.03
2018-06-21T21:11:05.710Z,9.87
2018-06-21T21:13:33.251Z,6.90
2018-06-21T21:16:00.952Z,9.83
2018-06-21T21:18:28.595Z,4.17
2018-06-21T21:20:56.348Z,7.63
2018-06-21T21:23:24.035Z,7.97
2018-06-21T21:25:51.618Z,6.63
2018-06-21T21:28:19.194Z,6.17
2018-06-21T21:30:46.711Z,10.20
2018-06-21T21:33:14.457Z,7.40
2018-06-21T21:35:42.081Z,7.73
2018-06-21T21:38:10.507Z,9.60
2018-06-21T21:40:38.139Z,7.50
2018-06-21T21:43:06.296Z,10.77
2018-06-21T21:45:33.923Z,6.07
2018-06-21T21:48:01.589Z,7.50
2018-06-21T21:50:29.130Z,7.97
2018-06-21T21:52:56.631Z,4.17
2018-06-21T21:55:24.158Z,14.27
2018-06-21T21:57:52.270Z,10.00
2018-06-21T22:00:54.383Z,11.47
2018-06-21T22:03:22.036Z,7.73
2018-06-21T22:05:50.204Z,9.23
2018-06-21T22:08:17.898Z,5.93
2018-06-21T22:10:47.043Z,7.83
2018-06-21T22:13:15.125Z,6.90
2018-06-21T22:15:42.808Z,8.23
2018-06-21T22:18:10.344Z,8.17
2018-06-21T22:20:38.352Z,8.53
2018-06-21T22:23:05.860Z,9.17
2018-06-21T22:25:33.723Z,5.17
2018-06-21T22:28:01.626Z,8.63
2018-06-21T22:30:30.067Z,8.13
2018-06-21T22:32:58.707Z,9.40
2018-06-21T22:35:26.917Z,7.10
2018-06-21T22:37:54.766Z,9.97
2018-06-21T22:40:23.128Z,5.90
2018-06-21T22:42:50.994Z,8.63
2018-06-21T22:45:18.975Z,10.17
2018-06-21T22:47:47.134Z,12.63
2018-06-21T22:50:15.102Z,7.27
2018-06-21T22:52:42.930Z,11.07
2018-06-21T22:55:10.962Z,8.17
2018-06-21T22:57:38.823Z,10.23
2018-06-21T23:00:06.685Z,8.13
2018-06-21T23:02:35.323Z,7.30
2018-06-21T23:05:03.272Z,5.87
2018-06-21T23:07:30.967Z,7.00
2018-06-21T23:09:58.729Z,8.87
2018-06-21T23:12:26.698Z,8.13
2018-06-21T23:14:54.871Z,9.67
2018-06-21T23:17:23.110Z,12.13
2018-06-21T23:19:50.955Z,13.30
2018-06-21T23:22:19.029Z,8.37
2018-06-21T23:24:46.918Z,4.30
2018-06-21T23:27:15.096Z,7.07
2018-06-21T23:29:43.253Z,10.10
2018-06-21T23:32:11.013Z,8.70
2018-06-21T23:34:39.807Z,13.37
2018-06-21T23:37:07.586Z,10.33
2018-06-21T23:39:35.498Z,7.00
2018-06-21T23:42:03.621Z,7.63
2018-06-21T23:44:31.516Z,10.73
2018-06-21T23:46:59.470Z,11.90
2018-06-21T23:49:27.065Z,4.73
2018-06-21T23:51:54.651Z,8.13
2018-06-21T23:54:22.158Z,10.10
2018-06-21T23:56:49.620Z,16.83
2018-06-21T23:59:17.576Z,10.03
